Terminal Aerodrome Forecast
Issued by NWS

Current Version | Previous Version | Text Only | Print | Product List | Glossary On
Versions: 1 2 3 4 5 6 7 8 9 10 11 12
000
FTAK31 PAFA 162336
TAFAGA
TAF
PAGA 162336Z 1700/1724 16005KT P6SM -SHRA FEW018 BKN035 OVC045
     FM170900 21004KT P6SM -SHRA BCFG BKN020 OVC040
     FM171400 26004KT 5SM -SHRA BR FEW010 BKN020 OVC040
     FM172200 26004KT P6SM VCSH SCT020 BKN050=

USA.gov is the U.S. government's official web portal to all federal, state and local government web resources and services.